Terminal Aerodrome Forecast
Issued by NWS

Home | Current Version | Previous Version | Text Only | Print | Product List | Glossary On
Versions: 1 2 3 4 5 6 7 8 9 10 11 12 13 14 15 16 17
000
FTUS41 KLWX 291740 AAC
TAFMTN
TAF AMD
KMTN 291740Z 2918/3018 14006KT P6SM VCSH BKN040
     FM292100 18011KT P6SM VCTS BKN040CB
     FM300000 18010KT P6SM BKN040
     FM301200 20010KT 3SM BR BKN060
     FM301500 19012KT 6SM BR BKN150
     FM301600 19013KT 4SM -SHRA VCTS BKN050CB=

USA.gov is the U.S. government's official web portal to all federal, state and local government web resources and services.